sensor_id;sensor_type;location;lat;lon;timestamp;temperature;humidity
12839;DHT22;6486;51.034;5.262;2023-03-24T00:02:04;14.00;81.40
12839;DHT22;6486;51.034;5.262;2023-03-24T00:04:32;13.90;81.50
12839;DHT22;6486;51.034;5.262;2023-03-24T00:06:58;13.90;81.50
12839;DHT22;6486;51.034;5.262;2023-03-24T00:09:26;14.00;81.70
12839;DHT22;6486;51.034;5.262;2023-03-24T00:11:58;14.00;81.80
12839;DHT22;6486;51.034;5.262;2023-03-24T00:14:24;14.00;81.90
12839;DHT22;6486;51.034;5.262;2023-03-24T00:16:50;14.00;82.10
12839;DHT22;6486;51.034;5.262;2023-03-24T00:19:17;14.00;82.20
12839;DHT22;6486;51.034;5.262;2023-03-24T00:21:44;14.00;82.10
12839;DHT22;6486;51.034;5.262;2023-03-24T00:24:11;14.00;82.10
12839;DHT22;6486;51.034;5.262;2023-03-24T00:26:38;14.00;82.40
12839;DHT22;6486;51.034;5.262;2023-03-24T00:29:06;14.00;82.50
12839;DHT22;6486;51.034;5.262;2023-03-24T00:31:32;14.00;82.60
12839;DHT22;6486;51.034;5.262;2023-03-24T00:33:58;14.00;82.60
12839;DHT22;6486;51.034;5.262;2023-03-24T00:36:26;14.00;82.50
12839;DHT22;6486;51.034;5.262;2023-03-24T00:38:54;14.00;82.70
12839;DHT22;6486;51.034;5.262;2023-03-24T00:41:21;14.00;82.70
12839;DHT22;6486;51.034;5.262;2023-03-24T00:43:56;14.00;82.80
12839;DHT22;6486;51.034;5.262;2023-03-24T00:46:23;14.00;82.90
12839;DHT22;6486;51.034;5.262;2023-03-24T00:48:54;14.00;83.00
12839;DHT22;6486;51.034;5.262;2023-03-24T00:51:29;14.00;83.00
12839;DHT22;6486;51.034;5.262;2023-03-24T00:53:55;14.00;83.10
12839;DHT22;6486;51.034;5.262;2023-03-24T00:56:23;14.00;83.10
12839;DHT22;6486;51.034;5.262;2023-03-24T00:58:49;14.00;83.10
12839;DHT22;6486;51.034;5.262;2023-03-24T01:01:14;14.10;83.10
12839;DHT22;6486;51.034;5.262;2023-03-24T01:03:41;14.10;83.10
12839;DHT22;6486;51.034;5.262;2023-03-24T01:06:12;14.10;83.10
12839;DHT22;6486;51.034;5.262;2023-03-24T01:08:38;14.10;83.20
12839;DHT22;6486;51.034;5.262;2023-03-24T01:11:05;14.10;83.20
12839;DHT22;6486;51.034;5.262;2023-03-24T01:13:31;14.10;83.30
12839;DHT22;6486;51.034;5.262;2023-03-24T01:15:58;14.10;83.80
12839;DHT22;6486;51.034;5.262;2023-03-24T01:18:24;14.10;83.20
12839;DHT22;6486;51.034;5.262;2023-03-24T01:20:50;14.10;83.20
12839;DHT22;6486;51.034;5.262;2023-03-24T01:23:20;14.10;83.20
12839;DHT22;6486;51.034;5.262;2023-03-24T01:25:47;14.10;83.10
12839;DHT22;6486;51.034;5.262;2023-03-24T01:28:15;14.20;83.20
12839;DHT22;6486;51.034;5.262;2023-03-24T01:30:42;14.20;83.30
12839;DHT22;6486;51.034;5.262;2023-03-24T01:33:08;14.20;83.40
12839;DHT22;6486;51.034;5.262;2023-03-24T01:35:34;14.10;83.30
12839;DHT22;6486;51.034;5.262;2023-03-24T01:38:04;14.10;83.60
12839;DHT22;6486;51.034;5.262;2023-03-24T01:40:32;14.10;83.60
12839;DHT22;6486;51.034;5.262;2023-03-24T01:42:59;14.10;83.60
12839;DHT22;6486;51.034;5.262;2023-03-24T01:48:16;14.10;83.80
12839;DHT22;6486;51.034;5.262;2023-03-24T01:50:51;14.10;83.90
12839;DHT22;6486;51.034;5.262;2023-03-24T01:53:19;14.10;83.90
12839;DHT22;6486;51.034;5.262;2023-03-24T01:55:46;14.10;84.00
12839;DHT22;6486;51.034;5.262;2023-03-24T01:58:13;14.10;83.90
12839;DHT22;6486;51.034;5.262;2023-03-24T02:00:39;14.10;83.90
12839;DHT22;6486;51.034;5.262;2023-03-24T02:03:12;14.10;84.00
12839;DHT22;6486;51.034;5.262;2023-03-24T02:05:40;14.20;84.00
12839;DHT22;6486;51.034;5.262;2023-03-24T02:08:27;14.20;84.00
12839;DHT22;6486;51.034;5.262;2023-03-24T02:10:54;14.20;84.00
12839;DHT22;6486;51.034;5.262;2023-03-24T02:13:21;14.20;83.90
12839;DHT22;6486;51.034;5.262;2023-03-24T02:35:41;14.30;83.60
12839;DHT22;6486;51.034;5.262;2023-03-24T02:41:31;14.30;83.70
12839;DHT22;6486;51.034;5.262;2023-03-24T02:46:43;14.30;83.90
12839;DHT22;6486;51.034;5.262;2023-03-24T02:49:20;14.20;84.10
12839;DHT22;6486;51.034;5.262;2023-03-24T02:51:54;14.20;84.30
12839;DHT22;6486;51.034;5.262;2023-03-24T02:57:11;14.20;84.50
12839;DHT22;6486;51.034;5.262;2023-03-24T02:59:43;14.20;84.90
12839;DHT22;6486;51.034;5.262;2023-03-24T03:02:16;14.10;85.10
12839;DHT22;6486;51.034;5.262;2023-03-24T03:04:51;14.10;85.40
12839;DHT22;6486;51.034;5.262;2023-03-24T03:07:23;14.00;85.60
12839;DHT22;6486;51.034;5.262;2023-03-24T03:10:05;14.00;85.60
12839;DHT22;6486;51.034;5.262;2023-03-24T03:12:35;14.00;85.80
12839;DHT22;6486;51.034;5.262;2023-03-24T03:15:06;13.90;85.60
12839;DHT22;6486;51.034;5.262;2023-03-24T03:17:44;13.90;85.60
12839;DHT22;6486;51.034;5.262;2023-03-24T03:20:21;13.90;85.60
12839;DHT22;6486;51.034;5.262;2023-03-24T03:23:10;13.90;85.40
12839;DHT22;6486;51.034;5.262;2023-03-24T03:25:45;13.90;85.00
12839;DHT22;6486;51.034;5.262;2023-03-24T03:28:17;13.90;84.40
12839;DHT22;6486;51.034;5.262;2023-03-24T03:30:50;13.90;83.60
12839;DHT22;6486;51.034;5.262;2023-03-24T03:34:24;13.90;82.90
12839;DHT22;6486;51.034;5.262;2023-03-24T03:36:58;13.90;82.30
12839;DHT22;6486;51.034;5.262;2023-03-24T03:39:28;13.80;81.70
12839;DHT22;6486;51.034;5.262;2023-03-24T03:41:56;13.70;81.20
12839;DHT22;6486;51.034;5.262;2023-03-24T03:44:22;13.70;80.40
12839;DHT22;6486;51.034;5.262;2023-03-24T03:46:47;13.60;79.20
12839;DHT22;6486;51.034;5.262;2023-03-24T03:49:13;13.50;78.30
12839;DHT22;6486;51.034;5.262;2023-03-24T03:51:39;13.40;78.20
12839;DHT22;6486;51.034;5.262;2023-03-24T03:54:07;13.30;77.30
12839;DHT22;6486;51.034;5.262;2023-03-24T03:56:35;13.20;77.30
12839;DHT22;6486;51.034;5.262;2023-03-24T03:59:01;13.10;77.10
12839;DHT22;6486;51.034;5.262;2023-03-24T04:01:30;13.00;77.00
12839;DHT22;6486;51.034;5.262;2023-03-24T04:12:14;12.80;76.60
12839;DHT22;6486;51.034;5.262;2023-03-24T04:22:55;12.50;76.00
12839;DHT22;6486;51.034;5.262;2023-03-24T04:25:58;12.50;76.20
12839;DHT22;6486;51.034;5.262;2023-03-24T04:28:52;12.40;76.90
12839;DHT22;6486;51.034;5.262;2023-03-24T04:31:38;12.40;76.30
12839;DHT22;6486;51.034;5.262;2023-03-24T04:34:39;12.40;76.30
12839;DHT22;6486;51.034;5.262;2023-03-24T04:37:33;12.30;76.10
12839;DHT22;6486;51.034;5.262;2023-03-24T04:40:07;12.30;76.10
12839;DHT22;6486;51.034;5.262;2023-03-24T04:42:46;12.30;76.10
12839;DHT22;6486;51.034;5.262;2023-03-24T04:45:14;12.30;76.10
12839;DHT22;6486;51.034;5.262;2023-03-24T04:47:46;12.20;76.00
12839;DHT22;6486;51.034;5.262;2023-03-24T04:50:29;12.20;76.10
12839;DHT22;6486;51.034;5.262;2023-03-24T04:52:56;12.20;76.10
12839;DHT22;6486;51.034;5.262;2023-03-24T04:58:02;12.20;75.90
12839;DHT22;6486;51.034;5.262;2023-03-24T05:00:28;12.20;75.90
12839;DHT22;6486;51.034;5.262;2023-03-24T05:02:56;12.20;75.90
12839;DHT22;6486;51.034;5.262;2023-03-24T05:05:21;12.20;75.90
12839;DHT22;6486;51.034;5.262;2023-03-24T05:07:47;12.20;75.90
12839;DHT22;6486;51.034;5.262;2023-03-24T05:10:14;12.20;75.90
12839;DHT22;6486;51.034;5.262;2023-03-24T05:12:40;12.20;75.80
12839;DHT22;6486;51.034;5.262;2023-03-24T05:15:06;12.20;75.90
12839;DHT22;6486;51.034;5.262;2023-03-24T05:17:32;12.20;75.90
12839;DHT22;6486;51.034;5.262;2023-03-24T05:19:57;12.30;75.90
12839;DHT22;6486;51.034;5.262;2023-03-24T05:22:23;12.30;76.00
12839;DHT22;6486;51.034;5.262;2023-03-24T05:24:48;12.30;76.00
12839;DHT22;6486;51.034;5.262;2023-03-24T05:27:14;12.30;76.10
12839;DHT22;6486;51.034;5.262;2023-03-24T05:29:40;12.30;76.00
12839;DHT22;6486;51.034;5.262;2023-03-24T05:32:06;12.20;75.90
12839;DHT22;6486;51.034;5.262;2023-03-24T05:34:31;12.20;75.90
12839;DHT22;6486;51.034;5.262;2023-03-24T05:36:57;12.20;76.00
12839;DHT22;6486;51.034;5.262;2023-03-24T05:39:23;12.20;76.10
12839;DHT22;6486;51.034;5.262;2023-03-24T05:41:48;12.20;76.10
12839;DHT22;6486;51.034;5.262;2023-03-24T05:44:14;12.10;75.90
12839;DHT22;6486;51.034;5.262;2023-03-24T05:46:40;12.10;75.90
12839;DHT22;6486;51.034;5.262;2023-03-24T05:49:06;12.10;76.00
12839;DHT22;6486;51.034;5.262;2023-03-24T05:51:32;12.10;75.90
12839;DHT22;6486;51.034;5.262;2023-03-24T05:53:58;12.10;76.00
12839;DHT22;6486;51.034;5.262;2023-03-24T05:56:23;12.10;76.00
12839;DHT22;6486;51.034;5.262;2023-03-24T05:58:49;12.10;76.10
12839;DHT22;6486;51.034;5.262;2023-03-24T06:01:15;12.10;76.10
12839;DHT22;6486;51.034;5.262;2023-03-24T06:03:42;12.10;75.90
12839;DHT22;6486;51.034;5.262;2023-03-24T06:06:08;12.00;75.70
12839;DHT22;6486;51.034;5.262;2023-03-24T06:08:39;12.00;75.70
12839;DHT22;6486;51.034;5.262;2023-03-24T06:11:05;12.00;75.70
12839;DHT22;6486;51.034;5.262;2023-03-24T06:13:31;12.10;75.80
12839;DHT22;6486;51.034;5.262;2023-03-24T06:15:58;12.10;75.70
12839;DHT22;6486;51.034;5.262;2023-03-24T06:18:25;12.10;75.30
12839;DHT22;6486;51.034;5.262;2023-03-24T06:20:55;12.20;75.40
12839;DHT22;6486;51.034;5.262;2023-03-24T06:23:26;12.20;75.20
12839;DHT22;6486;51.034;5.262;2023-03-24T06:25:55;12.20;74.90
12839;DHT22;6486;51.034;5.262;2023-03-24T06:28:23;12.20;74.80
12839;DHT22;6486;51.034;5.262;2023-03-24T06:30:50;12.20;74.80
12839;DHT22;6486;51.034;5.262;2023-03-24T06:33:16;12.10;75.30
12839;DHT22;6486;51.034;5.262;2023-03-24T06:35:42;12.10;74.80
12839;DHT22;6486;51.034;5.262;2023-03-24T06:38:08;12.10;74.80
12839;DHT22;6486;51.034;5.262;2023-03-24T06:40:34;12.10;74.80
12839;DHT22;6486;51.034;5.262;2023-03-24T06:43:00;12.10;74.70
12839;DHT22;6486;51.034;5.262;2023-03-24T06:45:26;12.10;74.70
12839;DHT22;6486;51.034;5.262;2023-03-24T06:47:52;12.10;74.70
12839;DHT22;6486;51.034;5.262;2023-03-24T06:50:20;12.00;74.60
12839;DHT22;6486;51.034;5.262;2023-03-24T06:52:46;12.00;74.60
12839;DHT22;6486;51.034;5.262;2023-03-24T06:55:11;12.00;74.50
12839;DHT22;6486;51.034;5.262;2023-03-24T06:57:37;12.00;74.40
12839;DHT22;6486;51.034;5.262;2023-03-24T07:00:04;12.10;74.40
12839;DHT22;6486;51.034;5.262;2023-03-24T07:02:31;12.20;74.50
12839;DHT22;6486;51.034;5.262;2023-03-24T07:05:01;12.20;74.30
12839;DHT22;6486;51.034;5.262;2023-03-24T07:07:32;12.20;74.30
12839;DHT22;6486;51.034;5.262;2023-03-24T07:09:58;12.30;74.30
12839;DHT22;6486;51.034;5.262;2023-03-24T07:12:24;12.30;74.10
12839;DHT22;6486;51.034;5.262;2023-03-24T07:14:50;12.40;74.20
12839;DHT22;6486;51.034;5.262;2023-03-24T07:17:16;12.40;74.10
12839;DHT22;6486;51.034;5.262;2023-03-24T07:19:42;12.40;74.10
12839;DHT22;6486;51.034;5.262;2023-03-24T07:22:10;12.40;74.10
12839;DHT22;6486;51.034;5.262;2023-03-24T07:24:36;12.40;74.10
12839;DHT22;6486;51.034;5.262;2023-03-24T07:27:01;12.40;73.80
12839;DHT22;6486;51.034;5.262;2023-03-24T07:29:27;12.40;73.80
12839;DHT22;6486;51.034;5.262;2023-03-24T07:31:53;12.40;73.80
12839;DHT22;6486;51.034;5.262;2023-03-24T07:34:19;12.50;73.90
12839;DHT22;6486;51.034;5.262;2023-03-24T07:36:45;12.50;73.60
12839;DHT22;6486;51.034;5.262;2023-03-24T07:39:11;12.50;73.60
12839;DHT22;6486;51.034;5.262;2023-03-24T07:41:37;12.60;73.40
12839;DHT22;6486;51.034;5.262;2023-03-24T07:44:03;12.70;73.50
12839;DHT22;6486;51.034;5.262;2023-03-24T07:46:29;12.80;72.80
12839;DHT22;6486;51.034;5.262;2023-03-24T07:48:55;12.90;72.70
12839;DHT22;6486;51.034;5.262;2023-03-24T07:51:21;13.00;72.70
12839;DHT22;6486;51.034;5.262;2023-03-24T07:53:46;13.10;72.60
12839;DHT22;6486;51.034;5.262;2023-03-24T07:56:13;13.20;72.20
12839;DHT22;6486;51.034;5.262;2023-03-24T07:58:39;13.30;72.00
12839;DHT22;6486;51.034;5.262;2023-03-24T08:01:08;13.40;71.40
12839;DHT22;6486;51.034;5.262;2023-03-24T08:03:37;13.40;70.50
12839;DHT22;6486;51.034;5.262;2023-03-24T08:06:09;13.50;70.90
12839;DHT22;6486;51.034;5.262;2023-03-24T08:08:35;13.50;71.00
12839;DHT22;6486;51.034;5.262;2023-03-24T08:11:04;13.60;71.10
12839;DHT22;6486;51.034;5.262;2023-03-24T08:13:30;13.70;71.10
12839;DHT22;6486;51.034;5.262;2023-03-24T08:15:56;13.80;70.90
12839;DHT22;6486;51.034;5.262;2023-03-24T08:18:22;13.70;70.60
12839;DHT22;6486;51.034;5.262;2023-03-24T08:20:49;13.70;70.50
12839;DHT22;6486;51.034;5.262;2023-03-24T08:23:18;13.70;70.50
12839;DHT22;6486;51.034;5.262;2023-03-24T08:25:44;13.60;70.30
12839;DHT22;6486;51.034;5.262;2023-03-24T08:28:12;13.50;70.60
12839;DHT22;6486;51.034;5.262;2023-03-24T08:30:37;13.60;70.80
12839;DHT22;6486;51.034;5.262;2023-03-24T08:33:04;13.70;70.80
12839;DHT22;6486;51.034;5.262;2023-03-24T08:35:32;13.80;70.90
12839;DHT22;6486;51.034;5.262;2023-03-24T08:37:59;13.80;70.80
12839;DHT22;6486;51.034;5.262;2023-03-24T08:40:26;13.90;70.80
12839;DHT22;6486;51.034;5.262;2023-03-24T08:42:55;13.90;70.70
12839;DHT22;6486;51.034;5.262;2023-03-24T08:45:23;13.80;70.30
12839;DHT22;6486;51.034;5.262;2023-03-24T08:47:53;13.90;70.20
12839;DHT22;6486;51.034;5.262;2023-03-24T08:50:21;13.90;69.90
12839;DHT22;6486;51.034;5.262;2023-03-24T08:52:48;13.90;70.00
12839;DHT22;6486;51.034;5.262;2023-03-24T08:55:15;14.00;69.60
12839;DHT22;6486;51.034;5.262;2023-03-24T08:57:41;14.10;68.90
12839;DHT22;6486;51.034;5.262;2023-03-24T09:00:07;14.30;68.30
12839;DHT22;6486;51.034;5.262;2023-03-24T09:02:43;14.60;68.10
12839;DHT22;6486;51.034;5.262;2023-03-24T09:05:10;14.70;67.40
12839;DHT22;6486;51.034;5.262;2023-03-24T09:07:36;14.80;66.10
12839;DHT22;6486;51.034;5.262;2023-03-24T09:10:03;15.00;65.90
12839;DHT22;6486;51.034;5.262;2023-03-24T09:12:29;15.00;65.90
12839;DHT22;6486;51.034;5.262;2023-03-24T09:14:55;15.10;65.30
12839;DHT22;6486;51.034;5.262;2023-03-24T09:17:20;15.30;65.50
12839;DHT22;6486;51.034;5.262;2023-03-24T09:19:46;15.30;65.00
12839;DHT22;6486;51.034;5.262;2023-03-24T09:22:12;15.30;64.80
12839;DHT22;6486;51.034;5.262;2023-03-24T09:24:37;15.30;64.90
12839;DHT22;6486;51.034;5.262;2023-03-24T09:27:03;15.20;64.40
12839;DHT22;6486;51.034;5.262;2023-03-24T09:29:29;15.00;64.50
12839;DHT22;6486;51.034;5.262;2023-03-24T09:31:56;15.00;65.10
12839;DHT22;6486;51.034;5.262;2023-03-24T09:34:22;15.00;65.50
12839;DHT22;6486;51.034;5.262;2023-03-24T09:36:48;15.00;65.90
12839;DHT22;6486;51.034;5.262;2023-03-24T09:39:15;14.90;65.40
12839;DHT22;6486;51.034;5.262;2023-03-24T09:41:43;14.80;65.40
12839;DHT22;6486;51.034;5.262;2023-03-24T09:46:58;14.50;64.90
12839;DHT22;6486;51.034;5.262;2023-03-24T09:49:32;14.50;65.30
12839;DHT22;6486;51.034;5.262;2023-03-24T09:52:04;14.50;65.10
12839;DHT22;6486;51.034;5.262;2023-03-24T09:57:20;14.90;65.20
12839;DHT22;6486;51.034;5.262;2023-03-24T09:59:46;15.10;65.00
12839;DHT22;6486;51.034;5.262;2023-03-24T10:02:17;15.30;64.90
12839;DHT22;6486;51.034;5.262;2023-03-24T10:04:44;15.50;65.00
12839;DHT22;6486;51.034;5.262;2023-03-24T10:07:33;15.60;64.00
12839;DHT22;6486;51.034;5.262;2023-03-24T10:10:07;15.60;64.10
12839;DHT22;6486;51.034;5.262;2023-03-24T10:12:38;15.60;64.20
12839;DHT22;6486;51.034;5.262;2023-03-24T10:15:33;15.50;63.30
12839;DHT22;6486;51.034;5.262;2023-03-24T10:21:00;15.30;63.00
12839;DHT22;6486;51.034;5.262;2023-03-24T10:23:44;15.20;63.20
12839;DHT22;6486;51.034;5.262;2023-03-24T10:31:26;15.30;63.10
12839;DHT22;6486;51.034;5.262;2023-03-24T10:33:52;15.40;63.10
12839;DHT22;6486;51.034;5.262;2023-03-24T10:36:20;15.60;62.80
12839;DHT22;6486;51.034;5.262;2023-03-24T10:38:46;15.60;62.60
12839;DHT22;6486;51.034;5.262;2023-03-24T10:41:18;15.60;62.30
12839;DHT22;6486;51.034;5.262;2023-03-24T10:43:44;15.50;62.00
12839;DHT22;6486;51.034;5.262;2023-03-24T10:46:14;15.40;61.80
12839;DHT22;6486;51.034;5.262;2023-03-24T10:51:33;15.30;60.60
12839;DHT22;6486;51.034;5.262;2023-03-24T10:56:53;15.20;60.10
12839;DHT22;6486;51.034;5.262;2023-03-24T11:02:20;15.20;61.20
12839;DHT22;6486;51.034;5.262;2023-03-24T11:05:13;15.30;61.20
12839;DHT22;6486;51.034;5.262;2023-03-24T11:07:45;15.50;61.30
12839;DHT22;6486;51.034;5.262;2023-03-24T11:10:23;15.70;61.20
12839;DHT22;6486;51.034;5.262;2023-03-24T11:13:00;15.90;61.00
12839;DHT22;6486;51.034;5.262;2023-03-24T11:15:33;16.20;61.30
12839;DHT22;6486;51.034;5.262;2023-03-24T11:20:42;16.30;60.50
12839;DHT22;6486;51.034;5.262;2023-03-24T11:23:25;16.30;60.70
12839;DHT22;6486;51.034;5.262;2023-03-24T11:28:28;16.00;60.50
12839;DHT22;6486;51.034;5.262;2023-03-24T11:31:05;15.90;60.80
12839;DHT22;6486;51.034;5.262;2023-03-24T11:33:35;15.80;60.80
12839;DHT22;6486;51.034;5.262;2023-03-24T11:39:27;15.60;61.10
12839;DHT22;6486;51.034;5.262;2023-03-24T11:47:10;15.20;61.80
12839;DHT22;6486;51.034;5.262;2023-03-24T11:49:56;15.40;62.20
12839;DHT22;6486;51.034;5.262;2023-03-24T11:52:32;15.50;61.70
12839;DHT22;6486;51.034;5.262;2023-03-24T11:54:59;15.70;61.90
12839;DHT22;6486;51.034;5.262;2023-03-24T11:57:55;16.00;61.40
12839;DHT22;6486;51.034;5.262;2023-03-24T12:00:57;16.50;61.30
12839;DHT22;6486;51.034;5.262;2023-03-24T12:08:38;17.00;57.60
12839;DHT22;6486;51.034;5.262;2023-03-24T12:11:19;16.90;57.20
12839;DHT22;6486;51.034;5.262;2023-03-24T12:13:49;16.90;56.50
12839;DHT22;6486;51.034;5.262;2023-03-24T12:16:39;16.80;57.20
12839;DHT22;6486;51.034;5.262;2023-03-24T12:19:27;16.80;57.20
12839;DHT22;6486;51.034;5.262;2023-03-24T12:26:59;16.70;56.70
12839;DHT22;6486;51.034;5.262;2023-03-24T12:32:15;17.40;57.00
12839;DHT22;6486;51.034;5.262;2023-03-24T12:35:19;17.80;57.10
12839;DHT22;6486;51.034;5.262;2023-03-24T12:38:03;18.10;55.60
12839;DHT22;6486;51.034;5.262;2023-03-24T12:40:45;18.40;56.20
12839;DHT22;6486;51.034;5.262;2023-03-24T12:43:35;18.60;55.50
12839;DHT22;6486;51.034;5.262;2023-03-24T12:48:57;18.30;52.80
12839;DHT22;6486;51.034;5.262;2023-03-24T12:54:14;17.80;53.50
12839;DHT22;6486;51.034;5.262;2023-03-24T12:56:49;17.40;53.50
12839;DHT22;6486;51.034;5.262;2023-03-24T12:59:43;17.10;54.20
12839;DHT22;6486;51.034;5.262;2023-03-24T13:02:24;16.90;54.60
12839;DHT22;6486;51.034;5.262;2023-03-24T13:04:54;16.60;54.60
12839;DHT22;6486;51.034;5.262;2023-03-24T13:07:22;16.50;55.30
12839;DHT22;6486;51.034;5.262;2023-03-24T13:09:58;16.40;55.10
12839;DHT22;6486;51.034;5.262;2023-03-24T13:12:31;16.70;55.60
12839;DHT22;6486;51.034;5.262;2023-03-24T13:15:20;17.10;55.30
12839;DHT22;6486;51.034;5.262;2023-03-24T13:20:26;17.60;55.10
12839;DHT22;6486;51.034;5.262;2023-03-24T13:22:52;17.60;55.00
12839;DHT22;6486;51.034;5.262;2023-03-24T13:25:50;17.80;55.10
12839;DHT22;6486;51.034;5.262;2023-03-24T13:28:31;18.10;54.60
12839;DHT22;6486;51.034;5.262;2023-03-24T13:31:00;18.20;54.30
12839;DHT22;6486;51.034;5.262;2023-03-24T13:33:28;18.30;54.40
12839;DHT22;6486;51.034;5.262;2023-03-24T13:36:15;18.50;55.00
12839;DHT22;6486;51.034;5.262;2023-03-24T13:38:54;18.70;55.20
12839;DHT22;6486;51.034;5.262;2023-03-24T13:41:24;18.90;54.90
12839;DHT22;6486;51.034;5.262;2023-03-24T13:44:20;18.90;54.30
12839;DHT22;6486;51.034;5.262;2023-03-24T13:47:07;18.60;53.80
12839;DHT22;6486;51.034;5.262;2023-03-24T13:49:34;18.30;54.30
12839;DHT22;6486;51.034;5.262;2023-03-24T13:52:05;18.00;54.50
12839;DHT22;6486;51.034;5.262;2023-03-24T13:54:34;17.80;54.60
12839;DHT22;6486;51.034;5.262;2023-03-24T13:57:19;17.60;55.10
12839;DHT22;6486;51.034;5.262;2023-03-24T14:00:15;17.40;55.40
12839;DHT22;6486;51.034;5.262;2023-03-24T14:02:47;17.10;55.90
12839;DHT22;6486;51.034;5.262;2023-03-24T14:05:40;16.80;56.50
12839;DHT22;6486;51.034;5.262;2023-03-24T14:21:03;14.60;64.30
12839;DHT22;6486;51.034;5.262;2023-03-24T14:23:46;14.40;65.00
12839;DHT22;6486;51.034;5.262;2023-03-24T14:26:14;14.60;65.40
12839;DHT22;6486;51.034;5.262;2023-03-24T14:28:54;14.60;65.90
12839;DHT22;6486;51.034;5.262;2023-03-24T14:31:33;14.80;66.00
12839;DHT22;6486;51.034;5.262;2023-03-24T14:34:18;15.10;65.90
12839;DHT22;6486;51.034;5.262;2023-03-24T14:36:45;15.30;65.70
12839;DHT22;6486;51.034;5.262;2023-03-24T14:39:38;15.50;65.90
12839;DHT22;6486;51.034;5.262;2023-03-24T14:42:27;15.60;66.50
12839;DHT22;6486;51.034;5.262;2023-03-24T14:45:41;15.60;66.60
12839;DHT22;6486;51.034;5.262;2023-03-24T14:53:38;15.30;67.10
12839;DHT22;6486;51.034;5.262;2023-03-24T14:56:07;15.10;67.00
12839;DHT22;6486;51.034;5.262;2023-03-24T14:58:40;15.00;67.20
12839;DHT22;6486;51.034;5.262;2023-03-24T15:01:08;15.00;67.30
12839;DHT22;6486;51.034;5.262;2023-03-24T15:03:51;15.00;67.50
12839;DHT22;6486;51.034;5.262;2023-03-24T15:06:21;14.90;67.50
12839;DHT22;6486;51.034;5.262;2023-03-24T15:08:58;14.90;67.70
12839;DHT22;6486;51.034;5.262;2023-03-24T15:11:33;14.90;67.80
12839;DHT22;6486;51.034;5.262;2023-03-24T15:14:02;14.90;67.90
12839;DHT22;6486;51.034;5.262;2023-03-24T15:16:31;14.90;67.90
12839;DHT22;6486;51.034;5.262;2023-03-24T15:19:19;15.10;68.80
12839;DHT22;6486;51.034;5.262;2023-03-24T15:21:47;15.60;68.70
12839;DHT22;6486;51.034;5.262;2023-03-24T15:26:51;16.80;68.70
12839;DHT22;6486;51.034;5.262;2023-03-24T15:29:17;17.30;67.90
12839;DHT22;6486;51.034;5.262;2023-03-24T15:31:42;17.80;66.10
12839;DHT22;6486;51.034;5.262;2023-03-24T15:34:30;18.30;65.60
12839;DHT22;6486;51.034;5.262;2023-03-24T15:37:02;18.90;64.60
12839;DHT22;6486;51.034;5.262;2023-03-24T15:39:32;19.40;62.80
12839;DHT22;6486;51.034;5.262;2023-03-24T15:41:59;19.90;62.80
12839;DHT22;6486;51.034;5.262;2023-03-24T15:44:27;20.40;59.90
12839;DHT22;6486;51.034;5.262;2023-03-24T15:46:57;20.80;58.70
12839;DHT22;6486;51.034;5.262;2023-03-24T15:49:33;21.40;56.20
12839;DHT22;6486;51.034;5.262;2023-03-24T15:52:22;22.20;54.70
12839;DHT22;6486;51.034;5.262;2023-03-24T15:54:48;23.00;53.50
12839;DHT22;6486;51.034;5.262;2023-03-24T16:02:50;26.00;48.20
12839;DHT22;6486;51.034;5.262;2023-03-24T16:05:28;27.50;43.10
12839;DHT22;6486;51.034;5.262;2023-03-24T16:10:37;30.10;39.20
12839;DHT22;6486;51.034;5.262;2023-03-24T16:13:22;31.00;36.60
12839;DHT22;6486;51.034;5.262;2023-03-24T16:16:00;31.60;34.00
12839;DHT22;6486;51.034;5.262;2023-03-24T16:18:38;31.40;33.70
12839;DHT22;6486;51.034;5.262;2023-03-24T16:21:20;28.90;35.40
12839;DHT22;6486;51.034;5.262;2023-03-24T16:23:47;27.90;36.80
12839;DHT22;6486;51.034;5.262;2023-03-24T16:26:15;28.70;37.00
12839;DHT22;6486;51.034;5.262;2023-03-24T16:28:40;29.10;35.40
12839;DHT22;6486;51.034;5.262;2023-03-24T16:31:06;27.70;36.60
12839;DHT22;6486;51.034;5.262;2023-03-24T16:33:32;25.70;38.80
12839;DHT22;6486;51.034;5.262;2023-03-24T16:36:01;23.90;41.10
12839;DHT22;6486;51.034;5.262;2023-03-24T16:38:26;22.50;43.40
12839;DHT22;6486;51.034;5.262;2023-03-24T16:40:54;21.40;45.10
12839;DHT22;6486;51.034;5.262;2023-03-24T16:43:20;20.50;46.40
12839;DHT22;6486;51.034;5.262;2023-03-24T16:45:48;19.60;47.80
12839;DHT22;6486;51.034;5.262;2023-03-24T16:48:15;18.90;49.20
12839;DHT22;6486;51.034;5.262;2023-03-24T16:50:43;18.30;50.50
12839;DHT22;6486;51.034;5.262;2023-03-24T16:53:09;17.70;51.50
12839;DHT22;6486;51.034;5.262;2023-03-24T16:55:36;17.20;52.50
12839;DHT22;6486;51.034;5.262;2023-03-24T16:58:02;16.90;53.60
12839;DHT22;6486;51.034;5.262;2023-03-24T17:00:28;16.60;54.30
12839;DHT22;6486;51.034;5.262;2023-03-24T17:02:57;16.40;54.90
12839;DHT22;6486;51.034;5.262;2023-03-24T17:05:28;16.20;55.40
12839;DHT22;6486;51.034;5.262;2023-03-24T17:07:55;16.00;56.10
12839;DHT22;6486;51.034;5.262;2023-03-24T17:10:22;15.90;56.80
12839;DHT22;6486;51.034;5.262;2023-03-24T17:12:49;15.80;57.00
12839;DHT22;6486;51.034;5.262;2023-03-24T17:15:24;15.70;57.40
12839;DHT22;6486;51.034;5.262;2023-03-24T17:17:50;15.60;57.60
12839;DHT22;6486;51.034;5.262;2023-03-24T17:20:17;15.60;58.00
12839;DHT22;6486;51.034;5.262;2023-03-24T17:22:44;15.50;58.00
12839;DHT22;6486;51.034;5.262;2023-03-24T17:25:12;15.50;58.40
12839;DHT22;6486;51.034;5.262;2023-03-24T17:27:38;15.40;58.60
12839;DHT22;6486;51.034;5.262;2023-03-24T17:30:05;15.40;59.00
12839;DHT22;6486;51.034;5.262;2023-03-24T17:32:32;15.40;59.10
12839;DHT22;6486;51.034;5.262;2023-03-24T17:34:59;15.40;59.30
12839;DHT22;6486;51.034;5.262;2023-03-24T17:37:27;15.30;59.50
12839;DHT22;6486;51.034;5.262;2023-03-24T17:39:54;15.30;59.60
12839;DHT22;6486;51.034;5.262;2023-03-24T17:42:25;15.30;59.70
12839;DHT22;6486;51.034;5.262;2023-03-24T17:44:52;15.20;60.00
12839;DHT22;6486;51.034;5.262;2023-03-24T17:47:17;15.10;60.00
12839;DHT22;6486;51.034;5.262;2023-03-24T17:49:43;15.00;60.20
12839;DHT22;6486;51.034;5.262;2023-03-24T17:52:09;15.00;60.50
12839;DHT22;6486;51.034;5.262;2023-03-24T17:54:34;15.00;61.00
12839;DHT22;6486;51.034;5.262;2023-03-24T17:57:00;14.90;61.40
12839;DHT22;6486;51.034;5.262;2023-03-24T17:59:26;14.80;61.90
12839;DHT22;6486;51.034;5.262;2023-03-24T18:01:51;14.70;62.90
12839;DHT22;6486;51.034;5.262;2023-03-24T18:04:17;14.50;64.00
12839;DHT22;6486;51.034;5.262;2023-03-24T18:06:43;14.30;65.00
12839;DHT22;6486;51.034;5.262;2023-03-24T18:09:10;14.10;64.30
12839;DHT22;6486;51.034;5.262;2023-03-24T18:11:36;13.90;64.80
12839;DHT22;6486;51.034;5.262;2023-03-24T18:14:02;13.80;65.00
12839;DHT22;6486;51.034;5.262;2023-03-24T18:16:27;13.60;65.20
12839;DHT22;6486;51.034;5.262;2023-03-24T18:18:59;13.50;65.60
12839;DHT22;6486;51.034;5.262;2023-03-24T18:21:26;13.30;66.00
12839;DHT22;6486;51.034;5.262;2023-03-24T18:23:52;13.20;66.30
12839;DHT22;6486;51.034;5.262;2023-03-24T18:26:17;13.10;66.60